createdAt,value
2022-09-28T00:00:59.065Z,0.00
2022-09-28T00:01:59.101Z,0.00
2022-09-28T00:02:59.357Z,0.00
2022-09-28T00:03:59.028Z,0.00
2022-09-28T00:04:59.051Z,0.00
2022-09-28T00:05:59.044Z,0.00
2022-09-28T00:06:58.987Z,0.00
2022-09-28T00:07:59.037Z,0.00
2022-09-28T00:08:59.025Z,0.00
2022-09-28T00:09:58.953Z,0.00
2022-09-28T00:10:59.002Z,0.00
2022-09-28T00:11:58.931Z,0.00
2022-09-28T00:12:58.947Z,0.00
2022-09-28T00:13:58.909Z,0.00
2022-09-28T00:14:58.886Z,0.00
2022-09-28T00:15:58.902Z,0.00
2022-09-28T00:16:58.934Z,0.00
2022-09-28T00:17:58.874Z,0.00
2022-09-28T00:18:58.868Z,0.00
2022-09-28T00:19:58.851Z,0.00
2022-09-28T00:20:58.836Z,0.00
2022-09-28T00:21:58.848Z,0.00
2022-09-28T00:22:58.799Z,0.00
2022-09-28T00:23:58.872Z,0.00
2022-09-28T00:24:58.789Z,0.00
2022-09-28T00:25:58.821Z,0.00
2022-09-28T00:26:58.756Z,0.00
2022-09-28T00:27:58.751Z,0.00
2022-09-28T00:28:59.023Z,0.00
2022-09-28T00:29:58.748Z,0.00
2022-09-28T00:30:58.719Z,0.00
2022-09-28T00:31:58.753Z,0.00
2022-09-28T00:32:58.716Z,0.00
2022-09-28T00:33:58.678Z,0.00
2022-09-28T00:34:58.716Z,0.00
2022-09-28T00:35:58.690Z,0.00
2022-09-28T00:36:58.653Z,0.00
2022-09-28T00:37:58.628Z,0.00
2022-09-28T00:38:58.626Z,0.00
2022-09-28T00:39:58.623Z,0.00
2022-09-28T00:40:58.677Z,0.00
2022-09-28T00:41:58.612Z,0.00
2022-09-28T00:42:58.605Z,0.00
2022-09-28T00:43:58.583Z,0.00
2022-09-28T00:44:58.582Z,0.00
2022-09-28T00:45:58.590Z,0.00
2022-09-28T00:46:58.538Z,0.00
2022-09-28T00:47:58.509Z,0.00
2022-09-28T00:48:58.520Z,0.00
2022-09-28T00:49:58.549Z,0.00
2022-09-28T00:50:58.513Z,0.00
2022-09-28T00:51:58.520Z,0.00
2022-09-28T00:52:58.610Z,0.00
2022-09-28T00:53:58.458Z,0.00
2022-09-28T00:54:58.487Z,0.00
2022-09-28T00:55:58.527Z,0.00
2022-09-28T00:56:58.420Z,0.00
2022-09-28T00:57:58.420Z,0.00
2022-09-28T00:58:58.408Z,0.00
2022-09-28T00:59:58.393Z,0.00
2022-09-28T01:00:58.427Z,0.00
2022-09-28T01:01:58.433Z,0.00
2022-09-28T01:02:58.348Z,0.00
2022-09-28T01:03:58.370Z,0.00
2022-09-28T01:04:58.378Z,0.00
2022-09-28T01:05:58.348Z,0.00
2022-09-28T01:06:58.373Z,0.00
2022-09-28T01:07:58.309Z,0.00
2022-09-28T01:08:58.292Z,0.00
2022-09-28T01:09:58.289Z,0.00
2022-09-28T01:10:58.280Z,0.00
2022-09-28T01:11:58.258Z,0.00
2022-09-28T01:12:58.244Z,0.00
2022-09-28T01:13:58.238Z,0.00
2022-09-28T01:14:58.216Z,0.00
2022-09-28T01:15:58.270Z,0.00
2022-09-28T01:16:58.208Z,0.00
2022-09-28T01:17:58.190Z,0.00
2022-09-28T01:18:58.196Z,0.00
2022-09-28T01:19:58.210Z,0.00
2022-09-28T01:20:58.163Z,0.00
2022-09-28T01:21:58.145Z,0.00
2022-09-28T01:22:58.171Z,0.00
2022-09-28T01:23:58.117Z,0.00
2022-09-28T01:24:58.113Z,0.00
2022-09-28T01:25:58.113Z,0.00
2022-09-28T01:26:58.077Z,0.00
2022-09-28T01:27:58.068Z,0.00
2022-09-28T01:28:58.179Z,0.00
2022-09-28T01:29:58.073Z,0.00
2022-09-28T01:30:58.051Z,0.00
2022-09-28T01:31:58.119Z,0.00
2022-09-28T01:32:58.025Z,0.00
2022-09-28T01:33:58.035Z,0.00
2022-09-28T01:34:57.998Z,0.00
2022-09-28T01:35:58.011Z,0.00
2022-09-28T01:36:57.972Z,0.00
2022-09-28T01:37:57.991Z,0.00
2022-09-28T01:38:57.941Z,0.00
2022-09-28T01:39:57.942Z,0.00
2022-09-28T01:40:57.992Z,0.00
2022-09-28T01:41:57.946Z,0.00
2022-09-28T01:42:57.973Z,0.00
2022-09-28T01:43:57.895Z,0.00
2022-09-28T01:44:57.906Z,0.00
2022-09-28T01:45:57.913Z,0.00
2022-09-28T01:46:57.895Z,0.00
2022-09-28T01:47:57.922Z,0.00
2022-09-28T01:48:57.841Z,0.00
2022-09-28T01:49:57.829Z,0.00
2022-09-28T01:50:57.824Z,0.00
2022-09-28T01:51:57.850Z,0.00
2022-09-28T01:52:57.842Z,0.00
2022-09-28T01:53:57.808Z,0.00
2022-09-28T01:54:57.772Z,0.00
2022-09-28T01:55:57.760Z,0.00
2022-09-28T01:56:57.726Z,0.00
2022-09-28T01:57:57.785Z,0.00
2022-09-28T01:58:57.714Z,0.00
2022-09-28T01:59:57.732Z,0.00
2022-09-28T02:00:57.751Z,0.00
2022-09-28T02:01:57.741Z,0.00
2022-09-28T02:02:57.725Z,0.00
2022-09-28T02:03:57.660Z,0.00
2022-09-28T02:04:57.666Z,0.00
2022-09-28T02:05:57.639Z,0.00
2022-09-28T02:06:57.614Z,0.00
2022-09-28T02:07:57.645Z,0.00
2022-09-28T02:08:57.623Z,0.00
2022-09-28T02:09:57.619Z,0.00
2022-09-28T02:10:57.623Z,0.00
2022-09-28T02:11:57.557Z,0.00
2022-09-28T02:12:57.625Z,0.00
2022-09-28T02:13:57.532Z,0.00
2022-09-28T02:14:57.541Z,0.00
2022-09-28T02:15:57.588Z,0.00
2022-09-28T02:16:57.531Z,0.00
2022-09-28T02:17:57.513Z,0.00
2022-09-28T02:18:57.520Z,0.00
2022-09-28T02:19:57.502Z,0.00
2022-09-28T02:20:57.480Z,0.00
2022-09-28T02:21:57.461Z,0.00
2022-09-28T02:22:57.502Z,0.00
2022-09-28T02:23:57.451Z,0.00
2022-09-28T02:24:57.441Z,0.00
2022-09-28T02:25:57.403Z,0.00
2022-09-28T02:26:57.458Z,0.00
2022-09-28T02:27:57.410Z,0.00
2022-09-28T02:28:57.369Z,0.00
2022-09-28T02:29:57.392Z,0.00
2022-09-28T02:30:57.336Z,0.00
2022-09-28T02:31:57.404Z,0.00
2022-09-28T02:32:57.871Z,0.00
2022-09-28T02:33:57.410Z,0.00
2022-09-28T02:34:57.315Z,0.00
2022-09-28T02:35:57.295Z,0.00
2022-09-28T02:36:57.291Z,0.00
2022-09-28T02:37:57.266Z,0.00
2022-09-28T02:38:57.273Z,0.00
2022-09-28T02:39:57.271Z,0.00
2022-09-28T02:40:57.296Z,0.00
2022-09-28T02:41:57.238Z,0.00
2022-09-28T02:42:57.222Z,0.00
2022-09-28T02:43:57.226Z,0.00
2022-09-28T02:44:57.187Z,0.00
2022-09-28T02:45:57.262Z,0.00
2022-09-28T02:46:57.164Z,0.00
2022-09-28T02:47:57.194Z,0.00
2022-09-28T02:49:17.397Z,0.00
2022-09-28T02:49:57.172Z,0.00
2022-09-28T02:50:57.154Z,0.00
2022-09-28T02:51:57.096Z,0.00
2022-09-28T02:52:57.152Z,0.00
2022-09-28T02:53:57.110Z,0.00
2022-09-28T02:54:57.133Z,0.00
2022-09-28T02:55:57.054Z,0.00
2022-09-28T02:56:57.108Z,0.00
2022-09-28T02:57:57.074Z,0.00
2022-09-28T02:58:57.070Z,0.00
2022-09-28T02:59:57.036Z,0.00
2022-09-28T03:00:57.066Z,0.00
2022-09-28T03:01:57.012Z,0.00
2022-09-28T03:02:57.011Z,0.00
2022-09-28T03:03:57.059Z,0.00
2022-09-28T03:04:56.973Z,0.00
2022-09-28T03:05:56.958Z,0.00
2022-09-28T03:06:56.932Z,0.00
2022-09-28T03:07:56.949Z,0.00
2022-09-28T03:08:56.950Z,0.00
2022-09-28T03:09:56.929Z,0.00
2022-09-28T03:10:56.977Z,0.00
2022-09-28T03:11:56.883Z,0.00
2022-09-28T03:12:56.888Z,0.00
2022-09-28T03:13:56.897Z,0.00
2022-09-28T03:14:56.845Z,0.00
2022-09-28T03:15:56.879Z,0.00
2022-09-28T03:16:56.828Z,0.00
2022-09-28T03:17:56.903Z,0.00
2022-09-28T03:18:56.809Z,0.00
2022-09-28T03:19:56.794Z,0.00
2022-09-28T03:20:56.791Z,0.00
2022-09-28T03:21:56.776Z,0.00
2022-09-28T03:23:22.852Z,0.00
2022-09-28T03:23:56.752Z,0.00
2022-09-28T03:24:56.761Z,0.00
2022-09-28T03:25:56.729Z,0.00
2022-09-28T03:26:56.706Z,0.00
2022-09-28T03:27:56.758Z,0.00
2022-09-28T03:28:56.707Z,0.00
2022-09-28T03:29:56.666Z,0.00
2022-09-28T03:30:56.662Z,0.00
2022-09-28T03:31:56.689Z,0.00
2022-09-28T03:32:56.687Z,0.00
2022-09-28T03:33:56.630Z,0.00
2022-09-28T03:34:56.615Z,0.00
2022-09-28T03:35:56.617Z,0.00
2022-09-28T03:36:56.622Z,0.00
2022-09-28T03:37:56.651Z,0.00
2022-09-28T03:38:56.585Z,0.00
2022-09-28T03:39:56.594Z,0.00
2022-09-28T03:40:56.663Z,0.00
2022-09-28T03:41:56.541Z,0.00
2022-09-28T03:42:56.663Z,0.00
2022-09-28T03:43:56.540Z,0.00
2022-09-28T03:44:56.532Z,0.00
2022-09-28T03:45:56.532Z,0.00
2022-09-28T03:46:56.484Z,0.00
2022-09-28T03:47:56.531Z,0.00
2022-09-28T03:48:56.472Z,0.00
2022-09-28T03:49:56.461Z,0.00
2022-09-28T03:50:56.425Z,0.00
2022-09-28T03:51:56.442Z,0.00
2022-09-28T03:52:56.487Z,0.00
2022-09-28T03:53:56.392Z,0.00
2022-09-28T03:54:56.412Z,0.00
2022-09-28T03:55:56.398Z,0.00
2022-09-28T03:56:56.433Z,0.00
2022-09-28T03:57:56.451Z,0.00
2022-09-28T03:58:56.333Z,0.00
2022-09-28T03:59:56.330Z,0.00
2022-09-28T04:00:56.475Z,0.00
2022-09-28T04:01:56.375Z,0.00
2022-09-28T04:02:56.421Z,0.00
2022-09-28T04:03:56.276Z,0.00
2022-09-28T04:04:56.269Z,0.00
2022-09-28T04:05:56.282Z,0.00
2022-09-28T04:06:56.275Z,0.00
2022-09-28T04:07:56.353Z,0.00
2022-09-28T04:08:56.244Z,0.00
2022-09-28T04:09:56.208Z,0.00
2022-09-28T04:10:56.210Z,0.00
2022-09-28T04:12:03.871Z,0.00
2022-09-28T04:12:56.198Z,0.00
2022-09-28T04:13:56.209Z,0.00
2022-09-28T04:14:56.156Z,0.00
2022-09-28T04:15:56.215Z,0.00
2022-09-28T04:16:56.139Z,0.00
2022-09-28T04:17:56.125Z,0.00
2022-09-28T04:18:56.151Z,0.00
2022-09-28T04:19:56.132Z,0.00
2022-09-28T04:20:56.113Z,0.00
2022-09-28T04:21:56.104Z,0.00
2022-09-28T04:22:56.069Z,0.00
2022-09-28T04:23:56.079Z,0.00
2022-09-28T04:24:56.038Z,0.00
2022-09-28T04:25:56.040Z,0.00
2022-09-28T04:26:56.061Z,0.00
2022-09-28T04:27:56.091Z,0.00
2022-09-28T04:28:56.070Z,0.00
2022-09-28T04:29:56.004Z,0.00
2022-09-28T04:30:56.001Z,0.00
2022-09-28T04:31:56.027Z,0.00
2022-09-28T04:32:55.963Z,0.00
2022-09-28T04:33:55.947Z,0.00
2022-09-28T04:34:55.975Z,0.00
2022-09-28T04:35:55.947Z,0.00
2022-09-28T04:36:55.909Z,0.00
2022-09-28T04:37:55.910Z,0.00
2022-09-28T04:38:55.911Z,0.00
2022-09-28T04:39:55.901Z,0.00
2022-09-28T04:40:55.925Z,0.00
2022-09-28T04:41:55.896Z,0.00
2022-09-28T04:42:56.640Z,0.00
2022-09-28T04:43:55.877Z,0.00
2022-09-28T04:44:55.830Z,0.00
2022-09-28T04:45:55.907Z,0.00
2022-09-28T04:46:55.815Z,0.00
2022-09-28T04:47:55.857Z,0.00
2022-09-28T04:48:55.759Z,0.00
2022-09-28T04:49:55.789Z,0.00
2022-09-28T04:50:55.773Z,0.00
2022-09-28T04:51:55.735Z,0.00
2022-09-28T04:52:55.776Z,0.00
2022-09-28T04:53:55.732Z,0.00
2022-09-28T04:54:55.701Z,0.00
2022-09-28T04:55:55.719Z,0.00
2022-09-28T04:56:55.721Z,0.00
2022-09-28T04:57:55.691Z,0.00
2022-09-28T04:58:55.674Z,0.00
2022-09-28T04:59:55.648Z,0.00
2022-09-28T05:00:55.699Z,0.00
2022-09-28T05:01:55.666Z,0.00
2022-09-28T05:02:55.614Z,0.00
2022-09-28T05:03:55.596Z,0.00
2022-09-28T05:04:55.584Z,0.00
2022-09-28T05:05:55.605Z,0.00
2022-09-28T05:06:55.567Z,4.00
2022-09-28T05:07:55.593Z,0.00
2022-09-28T05:08:55.591Z,0.00
2022-09-28T05:09:55.524Z,4.00
2022-09-28T05:10:55.589Z,4.00
2022-09-28T05:11:55.538Z,4.00
2022-09-28T05:12:55.520Z,4.00
2022-09-28T05:13:55.516Z,0.00
2022-09-28T05:14:55.545Z,4.00
2022-09-28T05:16:01.796Z,4.00
2022-09-28T05:16:55.495Z,4.00
2022-09-28T05:17:55.441Z,8.00
2022-09-28T05:18:55.489Z,4.00
2022-09-28T05:19:55.461Z,4.00
2022-09-28T05:20:55.469Z,8.00
2022-09-28T05:21:56.065Z,4.00
2022-09-28T05:22:55.407Z,8.00
2022-09-28T05:23:55.419Z,8.00
2022-09-28T05:24:55.395Z,12.00
2022-09-28T05:25:55.401Z,8.00
2022-09-28T05:26:55.335Z,12.00
2022-09-28T05:27:55.319Z,12.00
2022-09-28T05:28:55.317Z,16.00
2022-09-28T05:29:55.316Z,16.00
2022-09-28T05:30:55.326Z,20.00
2022-09-28T05:31:55.371Z,24.00
2022-09-28T05:32:55.297Z,28.00
2022-09-28T05:33:55.319Z,28.00
2022-09-28T05:34:55.265Z,28.00
2022-09-28T05:36:00.312Z,28.00
2022-09-28T05:36:55.279Z,36.00
2022-09-28T05:37:55.241Z,36.00
2022-09-28T05:38:55.229Z,44.00
2022-09-28T05:39:55.197Z,44.00
2022-09-28T05:40:55.303Z,52.00
2022-09-28T05:41:55.203Z,56.00
2022-09-28T05:42:55.201Z,60.00
2022-09-28T05:43:55.170Z,60.00
2022-09-28T05:44:55.152Z,68.00
2022-09-28T05:45:55.956Z,68.00
2022-09-28T05:46:55.142Z,68.00
2022-09-28T05:47:55.110Z,72.00
2022-09-28T05:48:55.106Z,68.00
2022-09-28T05:49:55.091Z,68.00
2022-09-28T05:50:55.182Z,68.00
2022-09-28T05:51:55.086Z,64.00
2022-09-28T05:52:55.048Z,60.00
2022-09-28T05:53:55.053Z,64.00
2022-09-28T05:54:55.014Z,64.00
2022-09-28T05:55:55.028Z,72.00
2022-09-28T05:56:55.049Z,84.00
2022-09-28T05:57:54.992Z,88.00
2022-09-28T05:58:55.004Z,88.00
2022-09-28T05:59:54.993Z,88.00
2022-09-28T06:00:55.054Z,92.00
2022-09-28T06:01:54.967Z,100.00
2022-09-28T06:02:54.958Z,100.00
2022-09-28T06:03:54.990Z,104.00
2022-09-28T06:04:54.918Z,116.00
2022-09-28T06:05:54.911Z,128.00
2022-09-28T06:06:54.918Z,144.00
2022-09-28T06:07:54.925Z,156.00
2022-09-28T06:08:54.873Z,164.00
2022-09-28T06:09:54.897Z,164.00
2022-09-28T06:10:54.855Z,164.00
2022-09-28T06:11:54.869Z,164.00
2022-09-28T06:12:54.872Z,156.00
2022-09-28T06:13:54.799Z,160.00
2022-09-28T06:14:54.825Z,168.00
2022-09-28T06:15:54.863Z,180.00
2022-09-28T06:16:54.918Z,200.00
2022-09-28T06:17:54.791Z,228.00
2022-09-28T06:18:54.762Z,268.00
2022-09-28T06:19:54.742Z,304.00
2022-09-28T06:20:54.737Z,320.00
2022-09-28T06:21:54.719Z,332.00
2022-09-28T06:22:54.756Z,328.00
2022-09-28T06:23:54.702Z,320.00
2022-09-28T06:24:54.818Z,312.00
2022-09-28T06:25:54.697Z,312.00
2022-09-28T06:26:54.737Z,320.00
2022-09-28T06:27:54.827Z,332.00
2022-09-28T06:28:54.670Z,372.00
2022-09-28T06:29:54.734Z,392.00
2022-09-28T06:30:54.658Z,396.00
2022-09-28T06:31:55.336Z,392.00
2022-09-28T06:32:54.721Z,344.00
2022-09-28T06:33:54.613Z,308.00
2022-09-28T06:34:56.498Z,280.00
2022-09-28T06:35:54.577Z,260.00
2022-09-28T06:36:54.535Z,244.00
2022-09-28T06:37:54.667Z,232.00
2022-09-28T06:38:54.626Z,236.00
2022-09-28T06:39:54.559Z,228.00
2022-09-28T06:40:54.579Z,220.00
2022-09-28T06:41:54.530Z,208.00
2022-09-28T06:42:54.471Z,200.00
2022-09-28T06:43:54.546Z,180.00
2022-09-28T06:44:54.449Z,164.00
2022-09-28T06:45:54.558Z,152.00
2022-09-28T06:46:54.443Z,148.00
2022-09-28T06:47:54.450Z,148.00
2022-09-28T06:48:54.531Z,160.00
2022-09-28T06:49:54.485Z,168.00
2022-09-28T06:50:54.509Z,192.00
2022-09-28T06:51:54.445Z,176.00
2022-09-28T06:52:54.367Z,184.00
2022-09-28T06:53:54.391Z,176.00
2022-09-28T06:54:54.367Z,164.00
2022-09-28T06:55:54.344Z,148.00
2022-09-28T06:56:54.316Z,136.00
2022-09-28T06:57:54.355Z,128.00
2022-09-28T06:58:54.328Z,132.00
2022-09-28T06:59:54.278Z,140.00
2022-09-28T07:00:54.345Z,136.00
2022-09-28T07:01:54.338Z,140.00
2022-09-28T07:02:54.248Z,140.00
2022-09-28T07:03:55.833Z,140.00
2022-09-28T07:04:54.235Z,144.00
2022-09-28T07:05:54.226Z,156.00
2022-09-28T07:06:54.235Z,164.00
2022-09-28T07:07:54.214Z,164.00
2022-09-28T07:09:01.597Z,160.00
2022-09-28T07:09:55.371Z,172.00
2022-09-28T07:10:54.193Z,192.00
2022-09-28T07:11:54.156Z,224.00
2022-09-28T07:12:54.146Z,268.00
2022-09-28T07:13:54.202Z,360.00
2022-09-28T07:14:54.664Z,452.00
2022-09-28T07:15:54.087Z,524.00
2022-09-28T07:17:11.724Z,588.00
2022-09-28T07:18:01.501Z,624.00
2022-09-28T07:18:54.094Z,648.00
2022-09-28T07:19:54.041Z,676.00
2022-09-28T07:20:54.762Z,708.00
2022-09-28T07:22:03.574Z,748.00
2022-09-28T07:22:54.018Z,836.00
2022-09-28T07:23:54.495Z,964.00
2022-09-28T07:24:54.014Z,976.00
2022-09-28T07:25:54.081Z,912.00
2022-09-28T07:26:53.957Z,856.00
2022-09-28T07:27:53.964Z,736.00
2022-09-28T07:28:53.997Z,648.00
2022-09-28T07:29:53.970Z,560.00
2022-09-28T07:30:53.993Z,484.00
2022-09-28T07:31:53.903Z,440.00
2022-09-28T07:32:53.930Z,404.00
2022-09-28T07:33:54.059Z,436.00
2022-09-28T07:34:58.716Z,440.00
2022-09-28T07:35:53.859Z,480.00
2022-09-28T07:36:53.864Z,484.00
2022-09-28T07:37:53.870Z,496.00
2022-09-28T07:38:53.893Z,512.00
2022-09-28T07:39:53.841Z,568.00
2022-09-28T07:40:53.905Z,604.00
2022-09-28T07:41:56.699Z,640.00
2022-09-28T07:42:53.818Z,696.00
2022-09-28T07:43:53.796Z,808.00
2022-09-28T07:44:53.764Z,940.00
2022-09-28T07:45:53.789Z,1088.00
2022-09-28T07:46:53.747Z,1232.00
2022-09-28T07:47:53.739Z,1240.00
2022-09-28T07:48:53.724Z,1172.00
2022-09-28T07:49:53.771Z,992.00
2022-09-28T07:50:53.722Z,904.00
2022-09-28T07:51:53.665Z,916.00
2022-09-28T07:52:53.688Z,964.00
2022-09-28T07:53:53.701Z,1012.00
2022-09-28T07:54:53.646Z,1084.00
2022-09-28T07:55:53.687Z,1096.00
2022-09-28T07:56:53.627Z,1136.00
2022-09-28T07:57:53.631Z,1100.00
2022-09-28T07:58:53.611Z,1096.00
2022-09-28T07:59:53.601Z,1120.00
2022-09-28T08:00:53.753Z,1140.00
2022-09-28T08:01:53.620Z,1096.00
2022-09-28T08:02:53.564Z,964.00
2022-09-28T08:03:53.598Z,840.00
2022-09-28T08:04:53.570Z,788.00
2022-09-28T08:05:53.518Z,764.00
2022-09-28T08:06:53.518Z,756.00
2022-09-28T08:07:53.536Z,720.00
2022-09-28T08:08:53.506Z,696.00
2022-09-28T08:09:53.479Z,652.00
2022-09-28T08:10:53.482Z,616.00
2022-09-28T08:11:53.448Z,584.00
2022-09-28T08:12:53.452Z,552.00
2022-09-28T08:13:53.447Z,528.00
2022-09-28T08:14:53.424Z,520.00
2022-09-28T08:15:53.413Z,560.00
2022-09-28T08:16:53.525Z,616.00
2022-09-28T08:17:53.391Z,700.00
2022-09-28T08:18:53.403Z,816.00
2022-09-28T08:19:53.375Z,916.00
2022-09-28T08:20:53.368Z,988.00
2022-09-28T08:21:53.338Z,1040.00
2022-09-28T08:22:53.329Z,1100.00
2022-09-28T08:23:53.336Z,1200.00
2022-09-28T08:24:53.296Z,1292.00
2022-09-28T08:25:53.312Z,1320.00
2022-09-28T08:26:53.313Z,1252.00
2022-09-28T08:27:53.293Z,1188.00
2022-09-28T08:28:53.324Z,1176.00
2022-09-28T08:29:53.306Z,1208.00
2022-09-28T08:30:53.272Z,1312.00
2022-09-28T08:31:53.256Z,1376.00
2022-09-28T08:32:53.263Z,1392.00
2022-09-28T08:33:53.289Z,1328.00
2022-09-28T08:34:53.210Z,1312.00
2022-09-28T08:35:53.211Z,1404.00
2022-09-28T08:36:53.193Z,1364.00
2022-09-28T08:37:55.475Z,1396.00
2022-09-28T08:38:53.186Z,1420.00
2022-09-28T08:39:53.139Z,1404.00
2022-09-28T08:40:53.217Z,1348.00
2022-09-28T08:41:53.125Z,1304.00
2022-09-28T08:42:53.110Z,1336.00
2022-09-28T08:43:53.166Z,1316.00
2022-09-28T08:44:53.074Z,1284.00
2022-09-28T08:45:53.090Z,1256.00
2022-09-28T08:46:53.069Z,1196.00
2022-09-28T08:47:53.102Z,1104.00
2022-09-28T08:49:13.353Z,1044.00
2022-09-28T08:49:53.074Z,996.00
2022-09-28T08:50:53.016Z,1032.00
2022-09-28T08:51:53.009Z,1112.00
2022-09-28T08:52:52.994Z,1156.00
2022-09-28T08:53:53.054Z,1228.00
2022-09-28T08:54:52.960Z,1424.00
2022-09-28T08:55:52.950Z,1576.00
2022-09-28T08:56:52.943Z,1692.00
2022-09-28T08:57:52.991Z,1732.00
2022-09-28T08:58:52.956Z,1632.00
2022-09-28T08:59:52.922Z,1532.00
2022-09-28T09:00:52.987Z,1452.00
2022-09-28T09:01:55.715Z,1376.00
2022-09-28T09:02:53.029Z,1324.00
2022-09-28T09:03:52.937Z,1200.00
2022-09-28T09:04:52.883Z,1160.00
2022-09-28T09:05:52.871Z,1240.00
2022-09-28T09:06:52.849Z,1400.00
2022-09-28T09:07:52.831Z,1516.00
2022-09-28T09:08:52.822Z,1564.00
2022-09-28T09:09:52.785Z,1580.00
2022-09-28T09:10:52.814Z,1644.00
2022-09-28T09:11:52.780Z,1560.00
2022-09-28T09:13:52.813Z,1848.00
2022-09-28T09:14:52.730Z,1656.00
2022-09-28T09:15:52.749Z,2680.00
2022-09-28T09:16:52.731Z,2756.00
2022-09-28T09:17:52.685Z,2680.00
2022-09-28T09:18:52.740Z,2608.00
2022-09-28T09:19:52.719Z,2664.00
2022-09-28T09:20:52.671Z,2532.00
2022-09-28T09:21:52.654Z,2612.00
2022-09-28T09:22:53.607Z,2016.00
2022-09-28T09:23:52.663Z,2748.00
2022-09-28T09:24:52.638Z,2820.00
2022-09-28T09:25:52.617Z,1956.00
2022-09-28T09:26:52.598Z,2092.00
2022-09-28T09:27:52.595Z,2388.00
2022-09-28T09:28:52.585Z,2012.00
2022-09-28T09:29:52.631Z,1692.00
2022-09-28T09:30:52.573Z,1788.00
2022-09-28T09:31:52.552Z,1480.00
2022-09-28T09:32:52.538Z,1692.00
2022-09-28T09:33:52.520Z,2244.00
2022-09-28T09:34:52.540Z,2504.00
2022-09-28T09:35:52.498Z,1524.00
2022-09-28T09:36:52.497Z,2908.00
2022-09-28T09:37:56.482Z,2616.00
2022-09-28T09:38:52.501Z,1832.00
2022-09-28T09:39:52.478Z,3216.00
2022-09-28T09:40:52.597Z,3324.00
2022-09-28T09:41:52.426Z,3432.00
2022-09-28T09:42:52.483Z,3316.00
2022-09-28T09:43:52.401Z,1880.00
2022-09-28T09:44:52.441Z,1656.00
2022-09-28T09:45:52.422Z,1588.00
2022-09-28T09:46:52.385Z,1644.00
2022-09-28T09:47:52.406Z,1888.00
2022-09-28T09:48:52.409Z,1444.00
2022-09-28T09:49:52.394Z,1564.00
2022-09-28T09:50:52.321Z,1544.00
2022-09-28T09:51:52.337Z,1492.00
2022-09-28T09:52:52.334Z,2532.00
2022-09-28T09:53:52.308Z,2976.00
2022-09-28T09:54:52.325Z,1464.00
2022-09-28T09:55:52.264Z,1424.00
2022-09-28T09:56:52.269Z,1564.00
2022-09-28T09:57:52.276Z,3136.00
2022-09-28T09:58:52.336Z,3392.00
2022-09-28T09:59:52.239Z,2688.00
2022-09-28T10:00:52.273Z,1596.00
2022-09-28T10:01:52.189Z,1496.00
2022-09-28T10:02:52.291Z,1432.00
2022-09-28T10:03:52.198Z,1356.00
2022-09-28T10:04:52.211Z,1312.00
2022-09-28T10:05:52.157Z,1460.00
2022-09-28T10:06:52.194Z,3316.00
2022-09-28T10:07:52.214Z,3336.00
2022-09-28T10:08:52.124Z,2048.00
2022-09-28T10:09:52.178Z,3548.00
2022-09-28T10:10:52.140Z,2052.00
2022-09-28T10:11:52.099Z,1456.00
2022-09-28T10:12:52.120Z,1616.00
2022-09-28T10:13:52.081Z,3248.00
2022-09-28T10:14:52.092Z,3332.00
2022-09-28T10:15:52.111Z,3388.00
2022-09-28T10:16:52.120Z,2616.00
2022-09-28T10:17:52.112Z,1532.00
2022-09-28T10:18:52.016Z,3524.00
2022-09-28T10:19:52.037Z,1924.00
2022-09-28T10:20:52.015Z,2544.00
2022-09-28T10:21:52.021Z,1728.00
2022-09-28T10:22:51.979Z,1768.00
2022-09-28T10:23:51.968Z,2056.00
2022-09-28T10:24:52.194Z,1900.00
2022-09-28T10:25:51.959Z,1976.00
2022-09-28T10:26:51.960Z,3920.00
2022-09-28T10:27:51.910Z,3808.00
2022-09-28T10:28:51.900Z,1660.00
2022-09-28T10:29:51.949Z,3012.00
2022-09-28T10:30:52.033Z,2612.00
2022-09-28T10:31:51.898Z,1692.00
2022-09-28T10:32:51.883Z,3248.00
2022-09-28T10:33:51.850Z,2692.00
2022-09-28T10:34:52.110Z,3392.00
2022-09-28T10:35:51.835Z,3344.00
2022-09-28T10:36:51.802Z,3444.00
2022-09-28T10:37:51.799Z,3368.00
2022-09-28T10:38:51.806Z,3412.00
2022-09-28T10:39:51.785Z,3512.00
2022-09-28T10:40:51.826Z,3660.00
2022-09-28T10:41:51.745Z,3676.00
2022-09-28T10:42:51.783Z,3628.00
2022-09-28T10:43:53.838Z,3616.00
2022-09-28T10:44:51.729Z,3488.00
2022-09-28T10:45:51.806Z,3404.00
2022-09-28T10:46:51.708Z,3384.00
2022-09-28T10:47:51.686Z,3420.00
2022-09-28T10:48:51.737Z,3480.00
2022-09-28T10:49:51.688Z,3488.00
2022-09-28T10:50:51.681Z,3488.00
2022-09-28T10:51:51.651Z,3480.00
2022-09-28T10:52:51.617Z,3360.00
2022-09-28T10:53:51.613Z,1724.00
2022-09-28T10:54:51.634Z,1104.00
2022-09-28T10:55:51.592Z,1024.00
2022-09-28T10:56:51.593Z,3348.00
2022-09-28T10:57:51.562Z,3332.00
2022-09-28T10:58:51.549Z,2912.00
2022-09-28T10:59:51.569Z,1148.00
2022-09-28T11:00:51.562Z,1104.00
2022-09-28T11:01:51.534Z,1104.00
2022-09-28T11:06:07.399Z,1404.00
2022-09-28T11:07:08.342Z,1376.00
2022-09-28T11:08:08.349Z,1344.00
2022-09-28T11:09:08.371Z,1412.00
2022-09-28T11:10:08.346Z,1424.00
2022-09-28T11:11:08.327Z,1388.00
2022-09-28T11:12:08.277Z,1444.00
2022-09-28T11:13:08.341Z,1480.00
2022-09-28T11:14:08.252Z,1552.00
2022-09-28T11:15:08.260Z,1540.00
2022-09-28T11:16:08.282Z,1552.00
2022-09-28T11:17:08.285Z,1596.00
2022-09-28T11:18:08.272Z,1600.00
2022-09-28T11:19:08.228Z,1616.00
2022-09-28T11:20:08.197Z,2688.00
2022-09-28T11:21:11.371Z,3960.00
2022-09-28T11:22:10.426Z,3988.00
2022-09-28T11:23:08.185Z,1760.00
2022-09-28T11:24:08.164Z,2680.00
2022-09-28T11:25:08.159Z,1880.00
2022-09-28T11:26:08.139Z,1824.00
2022-09-28T11:27:08.227Z,1784.00
2022-09-28T11:28:08.108Z,1832.00
2022-09-28T11:29:08.121Z,1832.00
2022-09-28T11:30:08.082Z,1896.00
2022-09-28T11:31:08.232Z,2176.00
2022-09-28T11:32:09.646Z,3208.00
2022-09-28T11:33:08.121Z,4344.00
2022-09-28T11:34:08.070Z,4636.00
2022-09-28T11:35:08.050Z,4364.00
2022-09-28T11:36:08.035Z,4932.00
2022-09-28T11:37:08.017Z,2516.00
2022-09-28T11:38:08.007Z,2532.00
2022-09-28T11:39:07.995Z,3532.00
2022-09-28T11:40:07.963Z,2936.00
2022-09-28T11:41:07.956Z,4068.00
2022-09-28T11:42:07.967Z,1604.00
2022-09-28T11:43:07.967Z,1544.00
2022-09-28T11:44:07.942Z,1496.00
2022-09-28T11:45:07.944Z,1536.00
2022-09-28T11:46:07.982Z,1656.00
2022-09-28T11:47:07.934Z,1760.00
2022-09-28T11:48:07.867Z,1808.00
2022-09-28T11:49:07.879Z,1980.00
2022-09-28T11:50:07.838Z,4052.00
2022-09-28T11:51:07.863Z,1472.00
2022-09-28T11:52:07.862Z,1292.00
2022-09-28T11:53:07.812Z,1148.00
2022-09-28T11:54:07.804Z,1152.00
2022-09-28T11:55:07.798Z,1160.00
2022-09-28T11:56:09.044Z,1108.00
2022-09-28T11:57:07.767Z,1108.00
2022-09-28T11:58:07.776Z,1156.00
2022-09-28T11:59:07.803Z,1192.00
2022-09-28T12:00:07.748Z,1268.00
2022-09-28T12:01:07.749Z,1348.00
2022-09-28T12:02:07.807Z,1428.00
2022-09-28T12:03:07.864Z,1412.00
2022-09-28T12:04:07.732Z,1428.00
2022-09-28T12:05:07.728Z,1504.00
2022-09-28T12:06:07.739Z,1572.00
2022-09-28T12:07:07.661Z,1544.00
2022-09-28T12:08:07.690Z,1592.00
2022-09-28T12:09:07.647Z,1616.00
2022-09-28T12:10:07.631Z,1648.00
2022-09-28T12:11:07.606Z,1684.00
2022-09-28T12:12:07.627Z,1740.00
2022-09-28T12:13:07.588Z,1744.00
2022-09-28T12:14:07.613Z,1732.00
2022-09-28T12:15:07.585Z,1936.00
2022-09-28T12:16:27.602Z,2396.00
2022-09-28T12:17:08.527Z,4112.00
2022-09-28T12:18:07.619Z,4180.00
2022-09-28T12:19:07.542Z,4036.00
2022-09-28T12:20:07.539Z,4168.00
2022-09-28T12:21:07.485Z,4096.00
2022-09-28T12:22:07.483Z,3440.00
2022-09-28T12:23:07.468Z,1792.00
2022-09-28T12:24:07.449Z,1864.00
2022-09-28T12:25:07.511Z,1948.00
2022-09-28T12:26:07.434Z,2088.00
2022-09-28T12:27:07.454Z,4636.00
2022-09-28T12:28:07.443Z,4332.00
2022-09-28T12:29:07.435Z,4140.00
2022-09-28T12:30:07.433Z,4584.00
2022-09-28T12:31:07.420Z,4860.00
2022-09-28T12:32:07.402Z,3352.00
2022-09-28T12:33:07.353Z,2472.00
2022-09-28T12:34:07.349Z,2564.00
2022-09-28T12:35:07.351Z,2968.00
2022-09-28T12:36:07.331Z,2672.00
2022-09-28T12:37:07.320Z,3840.00
2022-09-28T12:38:07.308Z,3340.00
2022-09-28T12:39:35.616Z,4732.00
2022-09-28T12:40:07.788Z,4548.00
2022-09-28T12:41:07.364Z,4384.00
2022-09-28T12:42:07.273Z,4496.00
2022-09-28T12:43:07.249Z,4320.00
2022-09-28T12:44:07.244Z,3924.00
2022-09-28T12:45:07.220Z,3604.00
2022-09-28T12:46:11.893Z,3996.00